Izumo Princess — SXMB — position and weather

sailwx.info

Track history (hours):
 
Tides and Currents Weather Stations Pressure Air Temp Water Temp Dewpoint Dewpoint Depression Visibility Wind Speed Wind Dir Waves Ship Positions

Izumo Princess

Last reported at 2015-Jul-22 19:33 UTC. Time now 2015-Aug-01 03:36 UTC.
Position N 39°02' E 019°36'.
Warning: this ship's position is 9 days out of date.

Length 229 m; draft 12.7 m.

Type: Ship (hazmat cat B). MMSI: 240611000.

Date/timePositionNaut miles runAvg speedWind from/ knotsBaromVisibWave heightAir tempDewpointWater temp
2015-Jul-22 19:33N 39°02' E 019°36'1212.1
2015-Jul-22 18:32N 38°51' E 019°43'27911.1
2015-Jul-21 17:22N 35°43' E 024°02'1011.6
2015-Jul-21 16:31N 35°41' E 024°14'1111.7
2015-Jul-21 15:33N 35°40' E 024°27'1211.6
2015-Jul-21 14:33N 35°38' E 024°42'1211.8
2015-Jul-21 13:34N 35°36' E 024°56'1211.9
2015-Jul-21 12:33N 35°34' E 025°10'9111.0
2015-Jul-21 04:20N 35°16' E 026°59'1212.4
2015-Jul-21 03:21N 35°17' E 027°14'8312.2
2015-Jul-20 20:33N 35°26' E 028°55'1211.9
2015-Jul-20 19:33N 35°27' E 029°10'1212.2
2015-Jul-20 18:33N 35°29' E 029°25'5212.4
2015-Jul-20 14:23N 35°34' E 030°28'1011.6
2015-Jul-20 13:33N 35°35' E 030°40'2311.5
2015-Jul-20 11:33N 35°37' E 031°08'1211.9
2015-Jul-20 10:31N 35°37' E 031°23'5911.8
2015-Jul-20 05:30N 35°46' E 032°35'1312.5
2015-Jul-20 04:30N 35°48' E 032°50'16211.6
2015-Jul-19 14:33N 36°48' E 035°56'158 3.9
2015-Jul-17 22:14N 35°48' E 032°56'17411.5
2015-Jul-17 07:09N 35°17' E 029°25'8011.9
2015-Jul-17 00:27N 35°02' E 027°50'1211.7
2015-Jul-16 23:27N 35°00' E 027°36'1111.8
2015-Jul-16 22:29N 34°58' E 027°22'1111.3
2015-Jul-16 21:33N 34°56' E 027°09'1111.4
2015-Jul-16 20:33N 34°54' E 026°56'112 3.9
2015-Jul-15 16:08N 34°37' E 024°41'  
Track history (hours):
 
Tides and Currents Weather Stations Pressure Air Temp Water Temp Dewpoint Dewpoint Depression Visibility Wind Speed Wind Dir Waves Ship Positions

Izumo Princess

Last reported at 2015-Jul-22 19:33 UTC. Time now 2015-Aug-01 03:36 UTC.
Position N 39°02' E 019°36'.
Warning: this ship's position is 9 days out of date.

Length 229 m; draft 12.7 m.

Type: Ship (hazmat cat B). MMSI: 240611000.

Date/timePositionNaut miles runAvg speedWind from/ knotsBaromVisibWave heightAir tempDewpointWater temp
2015-Jul-22 19:33N 39°02' E 019°36'1212.1
2015-Jul-22 18:32N 38°51' E 019°43'27911.1
2015-Jul-21 17:22N 35°43' E 024°02'1011.6
2015-Jul-21 16:31N 35°41' E 024°14'1111.7
2015-Jul-21 15:33N 35°40' E 024°27'1211.6
2015-Jul-21 14:33N 35°38' E 024°42'1211.8
2015-Jul-21 13:34N 35°36' E 024°56'1211.9
2015-Jul-21 12:33N 35°34' E 025°10'9111.0
2015-Jul-21 04:20N 35°16' E 026°59'1212.4
2015-Jul-21 03:21N 35°17' E 027°14'8312.2
2015-Jul-20 20:33N 35°26' E 028°55'1211.9
2015-Jul-20 19:33N 35°27' E 029°10'1212.2
2015-Jul-20 18:33N 35°29' E 029°25'5212.4
2015-Jul-20 14:23N 35°34' E 030°28'1011.6
2015-Jul-20 13:33N 35°35' E 030°40'2311.5
2015-Jul-20 11:33N 35°37' E 031°08'1211.9
2015-Jul-20 10:31N 35°37' E 031°23'5911.8
2015-Jul-20 05:30N 35°46' E 032°35'1312.5
2015-Jul-20 04:30N 35°48' E 032°50'16211.6
2015-Jul-19 14:33N 36°48' E 035°56'158 3.9
2015-Jul-17 22:14N 35°48' E 032°56'17411.5
2015-Jul-17 07:09N 35°17' E 029°25'8011.9
2015-Jul-17 00:27N 35°02' E 027°50'1211.7
2015-Jul-16 23:27N 35°00' E 027°36'1111.8
2015-Jul-16 22:29N 34°58' E 027°22'1111.3
2015-Jul-16 21:33N 34°56' E 027°09'1111.4
2015-Jul-16 20:33N 34°54' E 026°56'112 3.9
2015-Jul-15 16:08N 34°37' E 024°41'  

Dump ship's entire track history